Terminal Aerodrome Forecast
Issued by NWS Albany, NY

Home | Current Version | Previous Version | Text Only | Print | Product List | Glossary On
Versions: 1 2 3 4 5 6 7 8 9 10 11 12 13 14 15 16 17 18 19 20 21 22 23 24 25 26 27 28 29
308
FTUS41 KALY 030536
TAFPOU
TAF
KPOU 030536Z 0306/0406 00000KT 4SM -RA BR SCT015 OVC035
      TEMPO 0306/0308 3SM RA BR BKN015 OVC025
     FM030800 VRB03KT 3SM -RA BR BKN015 OVC025
      TEMPO 0309/0312 2SM RA BR BKN009 OVC015
     FM031200 02004KT 3SM -RA BR SCT009 OVC015
     FM031600 01004KT P6SM VCSH OVC015
     FM040100 VRB02KT P6SM OVC009=

USA.gov is the U.S. government's official web portal to all federal, state and local government web resources and services.